createdAt,value
2017-07-20T00:02:02.801Z,64.50
2017-07-20T00:04:29.010Z,65.30
2017-07-20T00:06:55.603Z,64.80
2017-07-20T00:09:24.081Z,65.50
2017-07-20T00:11:51.496Z,65.90
2017-07-20T00:14:18.502Z,65.30
2017-07-20T00:16:44.996Z,65.20
2017-07-20T00:19:11.678Z,65.60
2017-07-20T00:21:37.855Z,65.80
2017-07-20T00:24:04.799Z,66.00
2017-07-20T00:26:34.881Z,65.80
2017-07-20T00:29:01.117Z,65.60
2017-07-20T00:31:27.370Z,65.60
2017-07-20T00:33:54.373Z,66.40
2017-07-20T00:36:22.312Z,66.20
2017-07-20T00:38:48.695Z,66.40
2017-07-20T00:41:14.957Z,66.30
2017-07-20T00:43:41.299Z,65.60
2017-07-20T00:46:07.513Z,66.00
2017-07-20T00:48:34.447Z,66.80
2017-07-20T00:51:01.971Z,67.20
2017-07-20T00:53:34.160Z,66.60
2017-07-20T00:56:00.487Z,67.20
2017-07-20T00:58:26.687Z,66.30
2017-07-20T01:00:52.921Z,66.20
2017-07-20T01:03:19.186Z,66.30
2017-07-20T01:05:46.938Z,66.00
2017-07-20T01:08:14.453Z,66.50
2017-07-20T01:10:40.660Z,66.30
2017-07-20T01:13:07.011Z,66.60
2017-07-20T01:15:33.371Z,66.90
2017-07-20T01:17:59.929Z,66.10
2017-07-20T01:20:26.151Z,66.00
2017-07-20T01:22:53.486Z,66.70
2017-07-20T01:25:19.766Z,66.70
2017-07-20T01:27:46.665Z,68.50
2017-07-20T01:30:27.808Z,68.20
2017-07-20T01:32:54.356Z,69.10
2017-07-20T01:35:20.525Z,69.50
2017-07-20T01:37:46.716Z,70.00
2017-07-20T01:40:13.153Z,70.00
2017-07-20T01:42:39.360Z,69.80
2017-07-20T01:45:05.540Z,70.40
2017-07-20T01:47:31.763Z,70.60
2017-07-20T01:49:59.004Z,70.90
2017-07-20T01:52:25.379Z,71.10
2017-07-20T01:54:53.122Z,71.40
2017-07-20T01:57:19.339Z,71.70
2017-07-20T01:59:46.619Z,71.60
2017-07-20T02:02:13.845Z,72.80
2017-07-20T02:04:40.899Z,72.90
2017-07-20T02:07:07.089Z,72.80
2017-07-20T02:09:34.077Z,72.20
2017-07-20T02:12:00.253Z,72.90
2017-07-20T02:14:26.473Z,72.90
2017-07-20T02:16:52.769Z,73.40
2017-07-20T02:19:18.974Z,73.50
2017-07-20T02:21:45.282Z,73.60
2017-07-20T02:24:13.607Z,73.90
2017-07-20T02:26:40.528Z,74.80
2017-07-20T02:29:06.761Z,73.50
2017-07-20T02:31:33.068Z,73.80
2017-07-20T02:33:59.216Z,74.30
2017-07-20T02:36:26.523Z,74.20
2017-07-20T02:38:53.409Z,75.00
2017-07-20T02:41:19.565Z,74.60
2017-07-20T02:43:45.762Z,74.80
2017-07-20T02:46:11.974Z,75.10
2017-07-20T02:48:38.163Z,75.10
2017-07-20T02:51:05.080Z,76.40
2017-07-20T02:53:31.263Z,75.60
2017-07-20T02:55:57.445Z,76.00
2017-07-20T02:58:23.629Z,74.80
2017-07-20T03:00:49.853Z,74.90
2017-07-20T03:03:16.038Z,74.80
2017-07-20T03:05:42.526Z,75.50
2017-07-20T03:08:09.879Z,75.10
2017-07-20T03:10:36.414Z,75.30
2017-07-20T03:13:02.678Z,75.10
2017-07-20T03:15:29.625Z,75.60
2017-07-20T03:17:56.567Z,76.40
2017-07-20T03:20:23.676Z,76.80
2017-07-20T03:22:49.857Z,77.00
2017-07-20T03:25:16.046Z,77.00
2017-07-20T03:27:43.440Z,76.80
2017-07-20T03:30:09.664Z,76.80
2017-07-20T03:32:35.830Z,77.10
2017-07-20T03:35:03.075Z,77.30
2017-07-20T03:37:29.976Z,77.70
2017-07-20T03:39:56.153Z,76.80
2017-07-20T03:42:23.118Z,77.10
2017-07-20T03:44:49.309Z,76.60
2017-07-20T03:47:15.450Z,76.80
2017-07-20T03:49:41.982Z,75.80
2017-07-20T03:52:08.925Z,77.90
2017-07-20T03:54:39.193Z,76.60
2017-07-20T03:57:05.395Z,77.00
2017-07-20T03:59:31.613Z,77.20
2017-07-20T04:01:58.494Z,77.30
2017-07-20T04:04:24.709Z,77.30
2017-07-20T04:06:50.902Z,77.10
2017-07-20T04:09:17.366Z,76.00
2017-07-20T04:11:44.317Z,76.40
2017-07-20T04:14:10.862Z,76.60
2017-07-20T04:16:37.038Z,76.40
2017-07-20T04:19:03.254Z,76.50
2017-07-20T04:21:29.493Z,76.50
2017-07-20T04:23:55.649Z,76.50
2017-07-20T04:26:22.557Z,77.30
2017-07-20T04:28:48.774Z,76.50
2017-07-20T04:31:14.954Z,76.60
2017-07-20T04:33:42.990Z,76.80
2017-07-20T04:36:10.073Z,75.60
2017-07-20T04:38:36.305Z,75.40
2017-07-20T04:41:02.527Z,76.10
2017-07-20T04:43:29.983Z,76.40
2017-07-20T04:45:56.907Z,76.50
2017-07-20T04:48:23.126Z,77.10
2017-07-20T04:50:49.327Z,76.30
2017-07-20T04:53:16.259Z,76.40
2017-07-20T04:55:42.425Z,76.60
2017-07-20T04:58:08.953Z,76.40
2017-07-20T05:00:35.178Z,76.80
2017-07-20T05:03:01.399Z,76.40
2017-07-20T05:05:28.345Z,77.30
2017-07-20T05:07:54.543Z,76.60
2017-07-20T05:10:20.718Z,77.40
2017-07-20T05:12:46.885Z,77.30
2017-07-20T05:15:13.844Z,77.40
2017-07-20T05:17:40.158Z,75.70
2017-07-20T05:20:07.058Z,76.70
2017-07-20T05:22:33.423Z,75.60
2017-07-20T05:25:00.411Z,76.50
2017-07-20T05:27:26.619Z,75.90
2017-07-20T05:29:53.565Z,77.60
2017-07-20T05:32:20.504Z,77.10
2017-07-20T05:34:47.470Z,77.20
2017-07-20T05:37:13.699Z,76.10
2017-07-20T05:39:40.026Z,76.20
2017-07-20T05:42:06.190Z,77.00
2017-07-20T05:44:32.406Z,76.50
2017-07-20T05:46:59.399Z,77.60
2017-07-20T05:49:27.084Z,76.50
2017-07-20T05:51:53.997Z,78.00
2017-07-20T05:54:20.174Z,75.60
2017-07-20T05:56:46.894Z,74.80
2017-07-20T05:59:13.479Z,73.30
2017-07-20T06:01:39.811Z,74.90
2017-07-20T06:04:06.144Z,74.40
2017-07-20T06:06:32.357Z,73.80
2017-07-20T06:09:01.687Z,75.50
2017-07-20T06:11:27.874Z,74.30
2017-07-20T06:13:54.420Z,75.80
2017-07-20T06:16:20.655Z,76.10
2017-07-20T06:18:46.845Z,76.00
2017-07-20T06:21:13.439Z,76.60
2017-07-20T06:23:39.689Z,76.60
2017-07-20T06:26:20.823Z,76.90
2017-07-20T06:28:47.388Z,75.30
2017-07-20T06:31:13.957Z,75.30
2017-07-20T06:33:40.916Z,76.30
2017-07-20T06:36:07.855Z,77.40
2017-07-20T06:38:34.826Z,76.80
2017-07-20T06:41:01.072Z,76.50
2017-07-20T06:43:27.279Z,75.90
2017-07-20T06:45:53.462Z,76.20
2017-07-20T06:48:19.644Z,78.00
2017-07-20T06:50:46.137Z,76.90
2017-07-20T06:53:13.070Z,75.90
2017-07-20T06:55:39.290Z,75.90
2017-07-20T06:58:05.463Z,76.00
2017-07-20T07:00:32.396Z,77.30
2017-07-20T07:02:59.278Z,78.20
2017-07-20T07:05:25.786Z,76.70
2017-07-20T07:07:51.968Z,76.70
2017-07-20T07:10:18.108Z,77.50
2017-07-20T07:12:45.030Z,75.90
2017-07-20T07:15:11.174Z,75.60
2017-07-20T07:17:37.338Z,76.10
2017-07-20T07:20:03.629Z,75.60
2017-07-20T07:22:29.841Z,76.10
2017-07-20T07:24:56.022Z,75.60
2017-07-20T07:27:24.217Z,71.30
2017-07-20T07:29:50.774Z,67.10
2017-07-20T07:32:16.955Z,65.10
2017-07-20T07:34:43.935Z,67.10
2017-07-20T07:37:10.467Z,67.00
2017-07-20T07:39:36.660Z,67.00
2017-07-20T07:42:02.894Z,67.10
2017-07-20T07:44:29.842Z,70.40
2017-07-20T07:46:56.745Z,70.50
2017-07-20T07:49:22.922Z,70.40
2017-07-20T07:51:51.805Z,71.40
2017-07-20T07:54:18.794Z,72.20
2017-07-20T07:56:44.984Z,71.30
2017-07-20T07:59:11.530Z,71.50
2017-07-20T08:01:38.459Z,72.30
2017-07-20T08:04:05.392Z,74.10
2017-07-20T08:06:32.557Z,71.80
2017-07-20T08:08:59.505Z,70.70
2017-07-20T08:11:26.455Z,71.60
2017-07-20T08:13:54.027Z,71.70
2017-07-20T08:16:20.202Z,71.80
2017-07-20T08:18:46.387Z,71.30
2017-07-20T08:21:12.565Z,73.90
2017-07-20T08:23:38.817Z,72.10
2017-07-20T08:26:05.004Z,74.10
2017-07-20T08:28:31.197Z,73.00
2017-07-20T08:30:58.125Z,74.30
2017-07-20T08:33:25.074Z,72.70
2017-07-20T08:35:52.019Z,72.80
2017-07-20T08:38:18.986Z,73.30
2017-07-20T08:40:45.903Z,72.50
2017-07-20T08:43:12.891Z,73.20
2017-07-20T08:45:39.263Z,72.40
2017-07-20T08:48:05.543Z,73.10
2017-07-20T08:50:31.816Z,71.20
2017-07-20T08:52:57.957Z,70.30
2017-07-20T08:55:24.144Z,70.30
2017-07-20T08:57:50.349Z,69.90
2017-07-20T09:00:16.518Z,68.30
2017-07-20T09:02:42.768Z,69.20
2017-07-20T09:05:08.906Z,70.40
2017-07-20T09:07:35.860Z,71.10
2017-07-20T09:10:02.789Z,71.60
2017-07-20T09:12:29.004Z,71.10
2017-07-20T09:14:55.187Z,71.00
2017-07-20T09:17:21.345Z,71.70
2017-07-20T09:19:47.554Z,71.10
2017-07-20T09:22:13.754Z,72.40
2017-07-20T09:24:40.698Z,70.50
2017-07-20T09:27:07.642Z,69.80
2017-07-20T09:29:34.549Z,69.90
2017-07-20T09:32:00.754Z,71.00
2017-07-20T09:34:26.929Z,71.80
2017-07-20T09:36:53.845Z,70.50
2017-07-20T09:39:20.972Z,70.60
2017-07-20T09:41:47.157Z,71.40
2017-07-20T09:44:13.442Z,71.60
2017-07-20T09:46:39.664Z,71.10
2017-07-20T09:49:05.821Z,70.50
2017-07-20T09:51:32.025Z,70.00
2017-07-20T09:53:58.221Z,71.60
2017-07-20T09:56:25.157Z,71.40
2017-07-20T09:58:52.081Z,74.00
2017-07-20T10:01:18.307Z,71.90
2017-07-20T10:03:44.505Z,72.80
2017-07-20T10:06:10.762Z,71.70
2017-07-20T10:08:36.936Z,71.50
2017-07-20T10:11:03.134Z,71.20
2017-07-20T10:13:29.318Z,71.40
2017-07-20T10:15:55.700Z,72.40
2017-07-20T10:18:22.713Z,71.80
2017-07-20T10:20:48.964Z,71.10
2017-07-20T10:23:15.177Z,71.20
2017-07-20T10:25:41.347Z,72.00
2017-07-20T10:28:08.265Z,72.30
2017-07-20T10:30:49.430Z,71.30
2017-07-20T10:33:15.893Z,70.90
2017-07-20T10:35:42.800Z,72.70
2017-07-20T10:38:08.991Z,72.10
2017-07-20T10:40:35.138Z,71.30
2017-07-20T10:43:01.335Z,72.60
2017-07-20T10:45:28.281Z,74.80
2017-07-20T10:47:55.244Z,72.80
2017-07-20T10:50:21.471Z,72.10
2017-07-20T10:52:47.667Z,72.60
2017-07-20T10:55:14.574Z,73.00
2017-07-20T10:57:40.776Z,72.80
2017-07-20T11:00:06.986Z,73.30
2017-07-20T11:02:33.891Z,73.00
2017-07-20T11:05:00.111Z,72.20
2017-07-20T11:07:26.303Z,72.50
2017-07-20T11:09:52.522Z,72.70
2017-07-20T11:12:18.722Z,73.60
2017-07-20T11:14:44.920Z,74.00
2017-07-20T11:17:11.104Z,73.40
2017-07-20T11:19:37.294Z,73.50
2017-07-20T11:22:03.497Z,73.50
2017-07-20T11:24:29.728Z,73.50
2017-07-20T11:26:55.901Z,72.60
2017-07-20T11:29:23.097Z,72.70
2017-07-20T11:31:50.083Z,72.70
2017-07-20T11:34:16.244Z,71.60
2017-07-20T11:36:43.178Z,73.80
2017-07-20T11:39:09.756Z,73.10
2017-07-20T11:41:35.975Z,73.60
2017-07-20T11:44:02.164Z,72.20
2017-07-20T11:46:28.403Z,70.00
2017-07-20T11:48:55.367Z,70.00
2017-07-20T11:51:21.566Z,69.10
2017-07-20T11:53:47.746Z,69.40
2017-07-20T11:56:13.907Z,68.80
2017-07-20T11:58:40.105Z,67.20
2017-07-20T12:01:06.314Z,66.40
2017-07-20T12:03:32.475Z,66.60
2017-07-20T12:05:59.039Z,69.20
2017-07-20T12:08:25.253Z,67.30
2017-07-20T12:10:52.184Z,68.00
2017-07-20T12:13:18.398Z,68.20
2017-07-20T12:15:44.543Z,68.70
2017-07-20T12:18:10.763Z,67.80
2017-07-20T12:20:38.052Z,66.60
2017-07-20T12:23:04.265Z,64.90
2017-07-20T12:25:30.454Z,63.60
2017-07-20T12:27:57.038Z,63.00
2017-07-20T12:30:23.238Z,62.50
2017-07-20T12:32:49.453Z,63.00
2017-07-20T12:35:15.657Z,63.10
2017-07-20T12:37:42.567Z,61.90
2017-07-20T12:40:09.451Z,62.00
2017-07-20T12:42:35.650Z,62.20
2017-07-20T12:45:01.806Z,64.40
2017-07-20T12:47:27.965Z,63.80
2017-07-20T12:49:54.166Z,62.80
2017-07-20T12:52:20.386Z,63.00
2017-07-20T12:54:46.556Z,62.80
2017-07-20T12:57:12.751Z,62.70
2017-07-20T12:59:38.942Z,62.80
2017-07-20T13:02:05.174Z,60.90
2017-07-20T13:04:31.362Z,60.30
2017-07-20T13:06:57.937Z,57.80
2017-07-20T13:09:24.124Z,59.30
2017-07-20T13:11:50.335Z,59.20
2017-07-20T13:14:16.563Z,58.10
2017-07-20T13:16:42.919Z,59.10
2017-07-20T13:19:09.077Z,59.50
2017-07-20T13:21:35.318Z,60.30
2017-07-20T13:24:02.325Z,59.30
2017-07-20T13:26:28.556Z,58.90
2017-07-20T13:28:54.758Z,58.60
2017-07-20T13:31:20.964Z,59.70
2017-07-20T13:33:47.878Z,61.10
2017-07-20T13:36:14.068Z,61.00
2017-07-20T13:38:41.023Z,60.60
2017-07-20T13:41:07.199Z,56.80
2017-07-20T13:43:34.160Z,56.00
2017-07-20T13:46:00.716Z,51.50
2017-07-20T13:48:26.923Z,51.60
2017-07-20T13:50:53.833Z,51.40
2017-07-20T13:53:20.010Z,50.50
2017-07-20T13:55:46.240Z,50.60
2017-07-20T13:58:12.414Z,51.60
2017-07-20T14:00:38.674Z,54.40
2017-07-20T14:03:05.599Z,54.20
2017-07-20T14:05:32.907Z,52.00
2017-07-20T14:07:59.091Z,53.70
2017-07-20T14:10:25.310Z,55.00
2017-07-20T14:12:51.527Z,55.20
2017-07-20T14:15:17.742Z,55.20
2017-07-20T14:17:43.939Z,54.10
2017-07-20T14:20:10.209Z,53.30
2017-07-20T14:22:36.437Z,53.60
2017-07-20T14:25:02.662Z,52.80
2017-07-20T14:27:28.873Z,53.90
2017-07-20T14:29:55.034Z,51.30
2017-07-20T14:32:21.211Z,52.40
2017-07-20T14:34:47.435Z,53.10
2017-07-20T14:37:13.608Z,51.60
2017-07-20T14:39:39.870Z,52.80
2017-07-20T14:42:06.804Z,53.20
2017-07-20T14:44:32.940Z,52.60
2017-07-20T14:46:59.193Z,53.50
2017-07-20T14:49:25.424Z,53.10
2017-07-20T14:51:51.937Z,52.00
2017-07-20T14:54:18.858Z,51.40
2017-07-20T14:56:45.080Z,52.00
2017-07-20T14:59:11.303Z,50.90
2017-07-20T15:01:37.448Z,52.30
2017-07-20T15:04:03.640Z,52.20
2017-07-20T15:06:29.899Z,53.20
2017-07-20T15:08:56.080Z,53.70
2017-07-20T15:11:22.243Z,54.20
2017-07-20T15:13:48.459Z,54.50
2017-07-20T15:16:14.691Z,54.00
2017-07-20T15:18:40.865Z,54.60
2017-07-20T15:21:07.075Z,55.00
2017-07-20T15:23:33.674Z,55.40
2017-07-20T15:26:00.202Z,56.00
2017-07-20T15:28:26.484Z,55.70
2017-07-20T15:30:52.669Z,56.00
2017-07-20T15:33:18.983Z,56.10
2017-07-20T15:35:48.305Z,54.60
2017-07-20T15:38:16.763Z,56.50
2017-07-20T15:40:43.269Z,56.40
2017-07-20T15:43:10.882Z,54.50
2017-07-20T15:45:37.274Z,54.50
2017-07-20T15:48:03.666Z,55.60
2017-07-20T15:50:29.849Z,56.00
2017-07-20T15:52:56.777Z,55.80
2017-07-20T15:55:23.723Z,55.00
2017-07-20T15:57:50.676Z,55.80
2017-07-20T16:00:17.673Z,56.40
2017-07-20T16:02:44.274Z,55.70
2017-07-20T16:05:10.466Z,54.90
2017-07-20T16:07:36.753Z,55.00
2017-07-20T16:10:02.952Z,55.00
2017-07-20T16:12:29.851Z,56.40
2017-07-20T16:14:56.043Z,54.30
2017-07-20T16:17:22.215Z,55.30
2017-07-20T16:19:48.395Z,54.40
2017-07-20T16:22:14.603Z,55.20
2017-07-20T16:24:41.602Z,54.90
2017-07-20T16:27:07.835Z,52.70
2017-07-20T16:29:34.004Z,52.40
2017-07-20T16:32:01.190Z,51.60
2017-07-20T16:34:27.384Z,50.80
2017-07-20T16:36:53.996Z,52.60
2017-07-20T16:39:20.193Z,50.20
2017-07-20T16:41:46.482Z,51.00
2017-07-20T16:44:13.529Z,48.90
2017-07-20T16:46:40.503Z,50.10
2017-07-20T16:49:06.689Z,46.20
2017-07-20T16:51:32.907Z,47.60
2017-07-20T16:53:59.103Z,47.80
2017-07-20T16:56:25.241Z,47.10
2017-07-20T16:58:51.476Z,47.20
2017-07-20T17:01:17.676Z,46.50
2017-07-20T17:03:43.855Z,47.40
2017-07-20T17:06:10.045Z,47.60
2017-07-20T17:08:36.214Z,46.30
2017-07-20T17:11:02.400Z,46.90
2017-07-20T17:13:28.566Z,46.80
2017-07-20T17:15:54.776Z,47.50
2017-07-20T17:18:21.033Z,47.20
2017-07-20T17:21:03.661Z,46.60
2017-07-20T17:23:30.618Z,47.20
2017-07-20T17:25:56.799Z,48.60
2017-07-20T17:28:23.021Z,46.20
2017-07-20T17:30:49.188Z,49.20
2017-07-20T17:33:16.145Z,48.30
2017-07-20T17:35:43.725Z,47.20
2017-07-20T17:38:10.002Z,47.30
2017-07-20T17:40:36.785Z,46.00
2017-07-20T17:43:02.986Z,48.20
2017-07-20T17:45:29.897Z,45.70
2017-07-20T17:47:56.093Z,46.40
2017-07-20T17:50:22.535Z,47.00
2017-07-20T17:52:48.941Z,46.50
2017-07-20T17:55:15.142Z,47.20
2017-07-20T17:57:41.348Z,48.40
2017-07-20T18:00:07.551Z,48.80
2017-07-20T18:02:33.888Z,49.00
2017-07-20T18:05:00.057Z,48.10
2017-07-20T18:07:26.326Z,48.80
2017-07-20T18:09:52.501Z,48.00
2017-07-20T18:12:18.666Z,47.70
2017-07-20T18:14:45.655Z,47.50
2017-07-20T18:17:11.884Z,46.80
2017-07-20T18:19:38.126Z,46.90
2017-07-20T18:22:04.507Z,46.10
2017-07-20T18:24:30.752Z,46.80
2017-07-20T18:26:56.974Z,45.60
2017-07-20T18:29:23.359Z,46.70
2017-07-20T18:31:49.779Z,47.40
2017-07-20T18:34:17.411Z,48.70
2017-07-20T18:36:43.703Z,47.60
2017-07-20T18:39:09.998Z,49.30
2017-07-20T18:41:36.314Z,47.60
2017-07-20T18:44:03.573Z,49.20
2017-07-20T18:46:30.600Z,48.80
2017-07-20T18:48:58.034Z,48.10
2017-07-20T18:51:24.406Z,48.20
2017-07-20T18:53:50.745Z,48.00
2017-07-20T18:56:17.179Z,48.60
2017-07-20T18:58:43.586Z,47.80
2017-07-20T19:01:09.903Z,48.90
2017-07-20T19:03:36.503Z,50.10
2017-07-20T19:06:03.581Z,50.50
2017-07-20T19:08:30.765Z,51.20
2017-07-20T19:10:59.034Z,51.30
2017-07-20T19:13:25.322Z,50.60
2017-07-20T19:15:52.169Z,50.80
2017-07-20T19:18:18.607Z,50.10
2017-07-20T19:20:47.089Z,50.50
2017-07-20T19:23:13.797Z,49.60
2017-07-20T19:25:42.061Z,51.00
2017-07-20T19:28:09.366Z,51.40
2017-07-20T19:30:39.737Z,51.90
2017-07-20T19:42:51.099Z,52.10
2017-07-20T19:45:18.540Z,52.20
2017-07-20T19:47:46.494Z,52.00
2017-07-20T19:50:12.964Z,52.80
2017-07-20T19:52:39.382Z,52.80
2017-07-20T19:55:06.897Z,52.70
2017-07-20T19:57:34.746Z,53.40
2017-07-20T20:00:02.003Z,53.90
2017-07-20T20:02:28.949Z,53.70
2017-07-20T20:04:55.237Z,53.60
2017-07-20T20:07:22.203Z,54.10
2017-07-20T20:09:49.086Z,52.90
2017-07-20T20:12:15.479Z,54.20
2017-07-20T20:14:41.844Z,53.70
2017-07-20T20:17:11.470Z,55.00
2017-07-20T20:19:39.216Z,54.00
2017-07-20T20:22:06.046Z,53.80
2017-07-20T20:24:32.323Z,54.20
2017-07-20T20:27:13.470Z,54.30
2017-07-20T20:29:39.698Z,53.90
2017-07-20T20:32:05.898Z,53.80
2017-07-20T20:34:32.153Z,54.30
2017-07-20T20:36:58.372Z,55.20
2017-07-20T20:39:24.573Z,55.20
2017-07-20T20:41:50.787Z,55.90
2017-07-20T20:44:17.018Z,54.60
2017-07-20T20:46:43.241Z,55.00
2017-07-20T20:49:09.443Z,55.20
2017-07-20T20:51:35.701Z,55.40
2017-07-20T20:54:01.926Z,56.10
2017-07-20T20:56:28.158Z,56.10
2017-07-20T20:58:54.361Z,55.80
2017-07-20T21:01:21.408Z,56.60
2017-07-20T21:03:48.367Z,57.80
2017-07-20T21:06:15.295Z,56.50
2017-07-20T21:08:42.312Z,56.50
2017-07-20T21:11:08.489Z,55.60
2017-07-20T21:13:34.695Z,55.60
2017-07-20T21:16:00.882Z,56.80
2017-07-20T21:18:27.075Z,55.50
2017-07-20T21:20:53.285Z,55.80
2017-07-20T21:23:19.905Z,56.20
2017-07-20T21:25:46.867Z,56.20
2017-07-20T21:28:13.795Z,56.40
2017-07-20T21:30:39.979Z,56.40
2017-07-20T21:33:06.220Z,56.70
2017-07-20T21:35:32.455Z,57.00
2017-07-20T21:37:58.746Z,56.50
2017-07-20T21:40:25.129Z,57.20
2017-07-20T21:42:51.330Z,57.10
2017-07-20T21:45:17.652Z,58.00
2017-07-20T21:47:43.810Z,57.50
2017-07-20T21:50:10.072Z,57.50
2017-07-20T21:52:36.283Z,57.10
2017-07-20T21:55:02.469Z,58.50
2017-07-20T21:57:28.658Z,57.60
2017-07-20T21:59:55.199Z,56.90
2017-07-20T22:02:21.413Z,57.30
2017-07-20T22:04:47.608Z,57.50
2017-07-20T22:07:13.810Z,56.80
2017-07-20T22:09:40.026Z,57.20
2017-07-20T22:12:06.946Z,58.40
2017-07-20T22:14:33.121Z,58.10
2017-07-20T22:16:59.707Z,58.50
2017-07-20T22:19:25.926Z,58.90
2017-07-20T22:21:52.090Z,59.40
2017-07-20T22:24:19.036Z,59.60
2017-07-20T22:26:45.985Z,59.60
2017-07-20T22:29:12.878Z,59.70
2017-07-20T22:31:39.076Z,59.60
2017-07-20T22:34:05.277Z,59.70
2017-07-20T22:36:32.204Z,60.30
2017-07-20T22:38:58.432Z,59.10
2017-07-20T22:41:24.597Z,58.90
2017-07-20T22:43:51.629Z,58.80
2017-07-20T22:46:18.553Z,59.30
2017-07-20T22:48:44.749Z,59.20
2017-07-20T22:51:10.950Z,59.10
2017-07-20T22:53:37.114Z,59.40
2017-07-20T22:56:03.424Z,59.10
2017-07-20T22:58:29.638Z,59.00
2017-07-20T23:00:55.845Z,59.70
2017-07-20T23:03:22.830Z,60.00
2017-07-20T23:05:49.825Z,59.40
2017-07-20T23:08:17.464Z,60.00
2017-07-20T23:10:43.664Z,59.60
2017-07-20T23:13:09.799Z,59.40
2017-07-20T23:15:39.962Z,60.40
2017-07-20T23:18:07.078Z,59.70
2017-07-20T23:20:33.317Z,60.10
2017-07-20T23:22:59.554Z,60.00
2017-07-20T23:25:25.738Z,59.70
2017-07-20T23:27:51.907Z,60.80
2017-07-20T23:30:18.110Z,60.10
2017-07-20T23:32:44.270Z,59.80
2017-07-20T23:35:10.458Z,60.20
2017-07-20T23:37:36.717Z,60.70
2017-07-20T23:40:02.876Z,59.50
2017-07-20T23:42:29.789Z,59.80
2017-07-20T23:44:55.953Z,59.60
2017-07-20T23:47:23.315Z,59.60
2017-07-20T23:49:50.250Z,61.10
2017-07-20T23:52:16.855Z,60.20
2017-07-20T23:54:43.053Z,60.60
2017-07-20T23:57:09.211Z,60.80
2017-07-20T23:59:35.380Z,60.50
